Time;durP1;ratioP1;P1;durP2;ratioP2;P2;SDS_P1;SDS_P2;PMS_P1;PMS_P2;Temp;Humidity;BMP_temperature;BMP_pressure;BME280_temperature;BME280_humidity;BME280_pressure;Samples;Min_cycle;Max_cycle;Signal;HPM_P1;HPM_P2
2022/07/21 00:01:50;;;;;;;11.63;7.80;;;18.00;99.90;;;;;;5072286;28;20521;-78
2022/07/21 00:04:16;;;;;;;14.80;7.30;;;17.90;99.90;;;;;;5072392;28;20438;-77
2022/07/21 00:06:43;;;;;;;11.10;6.93;;;17.90;99.90;;;;;;5072907;28;20822;-77
2022/07/21 00:09:10;;;;;;;11.17;6.90;;;17.90;99.90;;;;;;5074704;28;20412;-77
2022/07/21 00:11:37;;;;;;;11.73;7.03;;;17.80;99.90;;;;;;5076301;28;20442;-78
2022/07/21 00:14:07;;;;;;;13.00;7.10;;;17.80;99.90;;;;;;5080170;28;20951;-77
2022/07/21 00:16:33;;;;;;;13.37;7.13;;;17.90;99.90;;;;;;5076218;28;21074;-78
2022/07/21 00:18:59;;;;;;;14.77;7.77;;;17.80;99.90;;;;;;5072125;28;20423;-78
2022/07/21 00:21:26;;;;;;;12.80;8.47;;;17.80;99.90;;;;;;5071563;28;20907;-78
2022/07/21 00:24:03;;;;;;;15.50;8.10;;;17.80;99.90;;;;;;5073964;28;20232;-76
2022/07/21 00:26:28;;;;;;;13.43;6.60;;;17.80;99.90;;;;;;5072216;28;20411;-78
2022/07/21 00:28:54;;;;;;;21.43;7.20;;;17.80;99.90;;;;;;5072395;28;20422;-78
2022/07/21 00:31:20;;;;;;;10.97;7.30;;;17.90;99.90;;;;;;5071511;28;20645;-79
2022/07/21 00:33:46;;;;;;;10.43;6.90;;;17.90;99.90;;;;;;5071746;28;20205;-76
2022/07/21 00:36:11;;;;;;;10.90;6.50;;;17.90;99.90;;;;;;5072041;28;20221;-79
2022/07/21 00:38:37;;;;;;;19.17;6.37;;;17.90;99.90;;;;;;5071283;28;20280;-78
2022/07/21 00:41:02;;;;;;;17.90;6.63;;;17.90;99.90;;;;;;5071880;28;20259;-76
2022/07/21 00:43:28;;;;;;;15.17;7.20;;;18.00;99.90;;;;;;5070224;28;20308;-78
2022/07/21 00:45:55;;;;;;;8.23;5.73;;;18.00;99.90;;;;;;5071750;28;20807;-78
2022/07/21 00:48:20;;;;;;;10.60;6.67;;;18.00;99.90;;;;;;5071504;28;20177;-78
2022/07/21 00:50:46;;;;;;;9.40;5.90;;;18.00;99.90;;;;;;5072267;28;20430;-78
2022/07/21 00:53:12;;;;;;;9.00;5.47;;;18.00;99.90;;;;;;5071366;28;20193;-78
2022/07/21 00:55:42;;;;;;;12.03;5.53;;;18.00;99.90;;;;;;5078330;28;20212;-78
2022/07/21 00:58:09;;;;;;;12.07;5.63;;;17.90;99.90;;;;;;5072169;28;20282;-77
2022/07/21 01:00:35;;;;;;;14.70;5.93;;;17.90;99.90;;;;;;5102366;28;20418;-79
2022/07/21 01:03:01;;;;;;;7.60;4.93;;;17.80;99.90;;;;;;5103368;28;20515;-79
2022/07/21 01:05:26;;;;;;;11.10;5.80;;;17.80;99.90;;;;;;5098061;28;20481;-79
2022/07/21 01:07:54;;;;;;;9.47;5.30;;;17.80;99.90;;;;;;5097840;28;20198;-80
2022/07/21 01:10:23;;;;;;;11.30;5.30;;;17.80;99.90;;;;;;5098501;28;20157;-79
2022/07/21 01:12:49;;;;;;;9.93;5.83;;;17.90;99.90;;;;;;5099184;28;20475;-79
2022/07/21 01:15:16;;;;;;;7.77;4.10;;;17.90;99.90;;;;;;5099802;28;20411;-78
2022/07/21 01:17:43;;;;;;;13.73;6.13;;;17.90;99.90;;;;;;5099745;28;20404;-79
2022/07/21 01:20:11;;;;;;;10.00;4.70;;;18.00;99.90;;;;;;5085427;28;20491;-79
2022/07/21 01:22:39;;;;;;;9.77;5.67;;;18.00;99.90;;;;;;5091172;28;20475;-78
2022/07/21 01:25:06;;;;;;;8.97;5.50;;;18.00;99.90;;;;;;5097374;28;20477;-78
2022/07/21 01:27:32;;;;;;;9.03;4.73;;;18.00;99.90;;;;;;5072237;28;20407;-77
2022/07/21 01:29:58;;;;;;;8.30;4.77;;;18.00;99.90;;;;;;5071679;28;20415;-78
2022/07/21 01:32:24;;;;;;;11.93;5.97;;;18.00;99.90;;;;;;5070163;28;20189;-78
2022/07/21 01:34:50;;;;;;;13.20;5.87;;;18.00;99.90;;;;;;5070769;28;20804;-78
2022/07/21 01:37:26;;;;;;;11.57;5.30;;;18.00;99.90;;;;;;5071186;28;20188;-78
2022/07/21 01:42:37;;;;;;;11.73;5.23;;;18.10;99.90;;;;;;5070422;28;20593;-78
2022/07/21 01:45:03;;;;;;;9.10;5.27;;;18.10;99.90;;;;;;5070708;28;20484;-78
2022/07/21 01:47:29;;;;;;;8.60;4.90;;;18.10;99.90;;;;;;5070555;28;20407;-77
2022/07/21 01:49:54;;;;;;;10.77;5.60;;;18.10;99.90;;;;;;5070857;28;20466;-78
2022/07/21 01:52:20;;;;;;;7.90;5.00;;;18.10;99.90;;;;;;5070671;28;20216;-79
2022/07/21 01:54:46;;;;;;;12.03;5.97;;;18.00;99.90;;;;;;5070792;28;20261;-79
2022/07/21 01:57:11;;;;;;;10.07;5.60;;;18.00;99.90;;;;;;5078154;28;20567;-79
2022/07/21 01:59:37;;;;;;;13.17;6.70;;;17.90;99.90;;;;;;5070435;28;20876;-79
2022/07/21 02:02:03;;;;;;;13.10;6.73;;;17.90;99.90;;;;;;5070382;28;20616;-78
2022/07/21 02:04:28;;;;;;;17.77;5.60;;;17.90;99.90;;;;;;5069172;28;20201;-79
2022/07/21 02:06:54;;;;;;;10.60;5.40;;;17.90;99.90;;;;;;5070280;28;20177;-79
2022/07/21 02:09:20;;;;;;;10.70;6.40;;;17.80;99.90;;;;;;5070547;28;20200;-78
2022/07/21 02:11:45;;;;;;;13.20;6.90;;;17.80;99.90;;;;;;5070107;28;20184;-78
2022/07/21 02:14:11;;;;;;;9.80;6.13;;;17.80;99.90;;;;;;5069836;28;20232;-78
2022/07/21 02:16:37;;;;;;;10.47;6.03;;;17.70;99.90;;;;;;5070398;28;20284;-78
2022/07/21 02:19:03;;;;;;;9.17;5.47;;;17.70;99.90;;;;;;5070273;28;20184;-78
2022/07/21 02:21:28;;;;;;;11.73;6.50;;;17.60;99.90;;;;;;5069524;28;20200;-79
2022/07/21 02:23:54;;;;;;;12.60;6.73;;;17.60;99.90;;;;;;5068616;28;20200;-78
2022/07/21 02:26:19;;;;;;;12.80;6.87;;;17.60;99.90;;;;;;5070119;28;20173;-79
2022/07/21 02:28:47;;;;;;;11.60;6.43;;;17.60;99.90;;;;;;5075377;28;20302;-79
2022/07/21 02:31:13;;;;;;;12.33;6.20;;;17.60;99.90;;;;;;5071602;28;20173;-79
2022/07/21 02:33:39;;;;;;;12.30;7.10;;;17.60;99.90;;;;;;5069935;28;20411;-78
2022/07/21 02:36:05;;;;;;;12.77;7.47;;;17.60;99.90;;;;;;5072011;28;20441;-79
2022/07/21 02:38:31;;;;;;;9.43;6.50;;;17.60;99.90;;;;;;5072169;28;20230;-79
2022/07/21 02:40:56;;;;;;;13.40;7.47;;;17.50;99.90;;;;;;5071196;28;20415;-78
2022/07/21 02:43:22;;;;;;;15.13;7.53;;;17.60;99.90;;;;;;5069911;28;20282;-78
2022/07/21 02:45:47;;;;;;;20.27;8.23;;;17.60;99.90;;;;;;5074984;28;20189;-78
2022/07/21 02:48:13;;;;;;;12.60;6.60;;;17.60;99.90;;;;;;5074937;28;20189;-78
2022/07/21 02:50:42;;;;;;;14.53;7.20;;;17.60;99.90;;;;;;5075320;28;20181;-78
2022/07/21 02:53:17;;;;;;;18.50;7.10;;;17.60;99.90;;;;;;5075115;28;20189;-79
2022/07/21 02:55:44;;;;;;;14.47;6.80;;;17.60;99.90;;;;;;5081081;28;20453;-79
2022/07/21 02:58:16;;;;;;;13.30;7.93;;;17.60;99.90;;;;;;5075900;28;20443;-79
2022/07/21 03:00:45;;;;;;;11.53;6.27;;;17.60;99.90;;;;;;5074840;28;20423;-79
2022/07/21 03:03:12;;;;;;;11.50;6.97;;;17.60;99.90;;;;;;5080060;28;20463;-79
2022/07/21 03:05:38;;;;;;;11.87;7.03;;;17.60;99.90;;;;;;5074257;28;20848;-78
2022/07/21 03:08:05;;;;;;;14.83;8.13;;;17.60;99.90;;;;;;5074727;28;20558;-78
2022/07/21 03:10:31;;;;;;;17.10;6.60;;;17.60;99.90;;;;;;5074754;28;20411;-79
2022/07/21 03:12:57;;;;;;;9.67;5.70;;;17.60;99.90;;;;;;5074526;28;20414;-79
2022/07/21 03:15:22;;;;;;;14.53;8.03;;;17.60;99.90;;;;;;5074419;28;20255;-78
2022/07/21 03:17:48;;;;;;;12.53;6.90;;;17.60;99.90;;;;;;5075064;28;20181;-79
2022/07/21 03:20:14;;;;;;;27.63;6.67;;;17.50;99.90;;;;;;5060764;28;20185;-78
2022/07/21 03:22:40;;;;;;;12.60;7.80;;;17.60;99.90;;;;;;5075453;28;20188;-79
2022/07/21 03:25:06;;;;;;;12.90;7.33;;;17.60;99.90;;;;;;5074726;28;20453;-79
2022/07/21 03:27:36;;;;;;;11.10;6.83;;;17.60;99.90;;;;;;5074636;28;20173;-78
2022/07/21 03:30:07;;;;;;;9.90;6.67;;;17.60;99.90;;;;;;5074798;28;20890;-78
2022/07/21 03:32:33;;;;;;;11.70;6.70;;;17.60;99.90;;;;;;5074516;28;20411;-78
2022/07/21 03:34:59;;;;;;;13.53;7.27;;;17.60;99.90;;;;;;5074854;28;20478;-78
2022/07/21 03:37:25;;;;;;;14.03;6.40;;;17.60;99.90;;;;;;5075152;28;20408;-79
2022/07/21 03:39:50;;;;;;;15.40;7.80;;;17.60;99.90;;;;;;5073791;28;20179;-78
2022/07/21 03:42:16;;;;;;;13.40;7.17;;;17.60;99.90;;;;;;5072954;28;20205;-77
2022/07/21 03:44:41;;;;;;;16.97;7.70;;;17.70;99.90;;;;;;5073486;28;20208;-78
2022/07/21 03:47:07;;;;;;;12.30;6.97;;;17.60;99.90;;;;;;5073158;28;20267;-78
2022/07/21 03:49:33;;;;;;;14.00;7.87;;;17.60;99.90;;;;;;5071207;28;20246;-78
2022/07/21 03:51:58;;;;;;;14.37;8.50;;;17.60;99.90;;;;;;5072452;28;20189;-78
2022/07/21 03:54:24;;;;;;;14.43;8.17;;;17.60;99.90;;;;;;5071805;28;20737;-78
2022/07/21 03:56:49;;;;;;;11.63;6.60;;;17.60;99.90;;;;;;5080816;28;20196;-78
2022/07/21 03:59:15;;;;;;;12.97;7.63;;;17.60;99.90;;;;;;5070964;28;20201;-78
2022/07/21 04:01:41;;;;;;;12.37;7.03;;;17.60;99.90;;;;;;5070898;28;20266;-78
2022/07/21 04:04:06;;;;;;;16.20;7.40;;;17.60;99.90;;;;;;5072201;28;20553;-77
2022/07/21 04:06:32;;;;;;;19.43;7.10;;;17.50;99.90;;;;;;5072254;28;20184;-78
2022/07/21 04:08:58;;;;;;;13.70;8.83;;;17.50;99.90;;;;;;5072630;28;20191;-78
2022/07/21 04:11:23;;;;;;;10.63;7.33;;;17.50;99.90;;;;;;5072185;28;20188;-78
2022/07/21 04:13:49;;;;;;;18.40;7.53;;;17.40;99.90;;;;;;5072297;28;20200;-78
2022/07/21 04:16:14;;;;;;;12.77;8.07;;;17.40;99.90;;;;;;5072215;28;20279;-77
2022/07/21 04:18:40;;;;;;;27.97;7.90;;;17.30;99.90;;;;;;5069899;28;20279;-78
2022/07/21 04:21:06;;;;;;;11.97;6.93;;;17.40;99.90;;;;;;5061065;28;20196;-77
2022/07/21 04:23:32;;;;;;;12.60;6.73;;;17.40;99.90;;;;;;5071899;28;20204;-77
2022/07/21 04:25:58;;;;;;;15.10;8.50;;;17.40;99.90;;;;;;5071948;28;20185;-78
2022/07/21 04:28:24;;;;;;;16.13;8.57;;;17.40;99.90;;;;;;5071793;28;20181;-78
2022/07/21 04:30:49;;;;;;;14.80;8.63;;;17.40;99.90;;;;;;5071996;28;20930;-77
2022/07/21 04:33:15;;;;;;;15.57;8.03;;;17.40;99.90;;;;;;5071615;28;20181;-77
2022/07/21 04:35:41;;;;;;;18.07;8.37;;;17.40;99.90;;;;;;5071452;28;20208;-78
2022/07/21 04:38:09;;;;;;;17.97;8.20;;;17.40;99.90;;;;;;5071290;28;20213;-78
2022/07/21 04:40:35;;;;;;;26.50;9.53;;;17.40;99.90;;;;;;5071658;28;20185;-79
2022/07/21 04:43:01;;;;;;;15.90;9.53;;;17.40;99.90;;;;;;5071571;28;20991;-78
2022/07/21 04:45:26;;;;;;;24.07;8.40;;;17.50;99.90;;;;;;5071438;28;20439;-77
2022/07/21 04:47:54;;;;;;;19.80;8.60;;;17.50;99.90;;;;;;5071660;28;20371;-77
2022/07/21 04:50:22;;;;;;;18.23;9.40;;;17.50;99.90;;;;;;5071922;28;20643;-78
2022/07/21 04:52:49;;;;;;;16.97;10.20;;;17.50;99.90;;;;;;5070378;28;20423;-78
2022/07/21 04:55:15;;;;;;;16.20;7.60;;;17.50;99.90;;;;;;5075261;28;20545;-78
2022/07/21 04:57:44;;;;;;;13.83;8.67;;;17.50;99.90;;;;;;5090529;28;20419;-78
2022/07/21 05:00:13;;;;;;;13.30;8.40;;;17.60;99.90;;;;;;5071889;28;20428;-79
2022/07/21 05:02:39;;;;;;;20.83;7.40;;;17.60;99.90;;;;;;5070323;28;20991;-78
2022/07/21 05:05:06;;;;;;;22.50;8.30;;;17.60;99.90;;;;;;5071803;28;20439;-78
2022/07/21 05:07:31;;;;;;;11.73;7.30;;;17.60;99.90;;;;;;5071156;28;20436;-78
2022/07/21 05:09:58;;;;;;;15.80;7.93;;;17.70;99.90;;;;;;5072126;28;20459;-77
2022/07/21 05:12:25;;;;;;;17.10;9.20;;;17.70;99.90;;;;;;5072316;28;20164;-78
2022/07/21 05:14:51;;;;;;;16.27;7.97;;;17.70;99.90;;;;;;5070918;28;20526;-77
2022/07/21 05:17:16;;;;;;;16.63;7.50;;;17.80;99.90;;;;;;5072933;28;20462;-77
2022/07/21 05:19:43;;;;;;;16.10;8.17;;;17.80;99.90;;;;;;5078196;28;20649;-78
2022/07/21 05:22:09;;;;;;;15.83;8.07;;;17.90;99.90;;;;;;5078576;28;20209;-76
2022/07/21 05:24:35;;;;;;;14.47;7.80;;;17.90;99.90;;;;;;5093326;28;20418;-77
2022/07/21 05:27:00;;;;;;;13.83;8.00;;;17.90;99.90;;;;;;5098441;28;20447;-78
2022/07/21 05:29:26;;;;;;;17.60;8.23;;;17.90;99.90;;;;;;5093131;28;20231;-76
2022/07/21 05:31:51;;;;;;;13.37;8.43;;;18.00;99.90;;;;;;5086128;28;20188;-77
2022/07/21 05:34:17;;;;;;;15.67;8.57;;;18.00;99.90;;;;;;5075530;28;20223;-78
2022/07/21 05:36:43;;;;;;;17.40;8.73;;;18.10;99.90;;;;;;5072888;28;20216;-78
2022/07/21 05:39:08;;;;;;;22.43;8.83;;;18.10;99.90;;;;;;5070685;28;20549;-78
2022/07/21 05:41:34;;;;;;;13.90;9.10;;;18.20;99.90;;;;;;5069620;28;20187;-78
2022/07/21 05:43:59;;;;;;;16.60;7.90;;;18.20;99.90;;;;;;5068850;28;20266;-78
2022/07/21 05:46:25;;;;;;;17.87;8.30;;;18.20;99.90;;;;;;5070919;28;20607;-78
2022/07/21 05:48:54;;;;;;;15.60;6.90;;;18.30;99.90;;;;;;5066056;28;20212;-79
2022/07/21 05:51:19;;;;;;;15.93;6.80;;;18.30;99.90;;;;;;5069723;28;20689;-77
2022/07/21 05:53:45;;;;;;;13.20;7.40;;;18.40;99.90;;;;;;5069199;28;20466;-79
2022/07/21 05:56:11;;;;;;;11.70;6.80;;;18.40;99.90;;;;;;5096640;28;20219;-79
2022/07/21 05:58:37;;;;;;;14.57;7.27;;;18.40;99.90;;;;;;5112358;28;20267;-78
2022/07/21 06:01:08;;;;;;;19.50;8.37;;;18.40;99.90;;;;;;5105711;28;20177;-79
2022/07/21 06:03:45;;;;;;;19.90;9.00;;;18.50;99.90;;;;;;5094352;28;20542;-77
2022/07/21 06:06:13;;;;;;;13.47;8.37;;;18.50;99.90;;;;;;5088931;28;20468;-78
2022/07/21 06:08:41;;;;;;;14.40;8.30;;;18.50;99.90;;;;;;5074365;28;20451;-77
2022/07/21 06:11:11;;;;;;;14.17;6.63;;;18.60;99.90;;;;;;5072503;28;20423;-77
2022/07/21 06:13:38;;;;;;;16.50;6.80;;;18.60;99.90;;;;;;5071712;28;20424;-78
2022/07/21 06:16:04;;;;;;;10.37;6.70;;;18.70;99.90;;;;;;5070367;28;20414;-77
2022/07/21 06:18:30;;;;;;;16.80;6.70;;;18.70;99.90;;;;;;5071776;28;20481;-75
2022/07/21 06:20:57;;;;;;;11.93;6.73;;;18.70;99.90;;;;;;5078658;28;20884;-77
2022/07/21 06:23:23;;;;;;;15.10;7.67;;;18.70;99.90;;;;;;5075576;28;20293;-76
2022/07/21 06:25:51;;;;;;;22.40;8.00;;;18.80;99.90;;;;;;5076253;28;20460;-77
2022/07/21 06:28:16;;;;;;;18.30;7.57;;;18.80;99.90;;;;;;5075377;28;20176;-79
2022/07/21 06:30:42;;;;;;;10.30;6.50;;;18.80;99.90;;;;;;5075119;28;20494;-78
2022/07/21 06:33:08;;;;;;;12.90;6.20;;;18.80;99.90;;;;;;5074418;28;20189;-78
2022/07/21 06:35:34;;;;;;;11.30;5.30;;;18.90;99.90;;;;;;5074329;28;20701;-78
2022/07/21 06:38:00;;;;;;;11.80;6.20;;;18.90;99.90;;;;;;5070610;28;20426;-77
2022/07/21 06:40:26;;;;;;;10.33;6.27;;;18.90;99.90;;;;;;5070047;28;20188;-77
2022/07/21 06:42:51;;;;;;;11.90;5.53;;;19.00;99.90;;;;;;5074130;28;20240;-77
2022/07/21 06:45:17;;;;;;;9.70;5.60;;;19.10;99.90;;;;;;5073905;28;20197;-77
2022/07/21 06:47:43;;;;;;;14.73;6.03;;;19.20;99.90;;;;;;5074310;28;20170;-77
2022/07/21 06:50:10;;;;;;;7.87;5.30;;;19.20;99.90;;;;;;5073509;28;20187;-78
2022/07/21 06:52:36;;;;;;;17.17;6.43;;;19.30;99.90;;;;;;5075062;28;20225;-78
2022/07/21 06:55:03;;;;;;;12.60;6.77;;;19.40;99.90;;;;;;5075150;28;20527;-78
2022/07/21 06:57:29;;;;;;;15.57;5.97;;;19.50;99.90;;;;;;5093992;28;20433;-78
2022/07/21 06:59:54;;;;;;;10.00;5.40;;;19.60;99.90;;;;;;5079826;28;20939;-78
2022/07/21 07:02:21;;;;;;;10.17;5.77;;;19.70;99.90;;;;;;5075206;28;20205;-78
2022/07/21 07:04:46;;;;;;;10.23;4.50;;;19.70;99.90;;;;;;5075108;28;20446;-78
2022/07/21 07:07:12;;;;;;;11.40;6.40;;;19.90;99.90;;;;;;5076971;28;20169;-78
2022/07/21 07:09:38;;;;;;;8.40;4.97;;;20.00;99.90;;;;;;5071752;28;20688;-78
2022/07/21 07:12:05;;;;;;;15.17;4.60;;;20.10;99.90;;;;;;5072615;28;20949;-78
2022/07/21 07:14:31;;;;;;;15.03;4.67;;;20.30;99.90;;;;;;5074950;28;20204;-78
2022/07/21 07:16:58;;;;;;;8.90;5.00;;;20.40;99.90;;;;;;5075613;28;20513;-78
2022/07/21 07:19:24;;;;;;;11.77;5.73;;;20.60;99.90;;;;;;5074130;28;20184;-78
2022/07/21 07:21:49;;;;;;;9.07;4.80;;;20.80;99.90;;;;;;5076152;28;20419;-78
2022/07/21 07:24:15;;;;;;;16.80;5.67;;;21.10;99.90;;;;;;5075806;28;20435;-78
2022/07/21 07:26:41;;;;;;;10.27;4.30;;;21.20;99.90;;;;;;5077049;28;20184;-77
2022/07/21 07:29:06;;;;;;;11.43;5.00;;;21.50;99.90;;;;;;5076191;28;20173;-78
2022/07/21 07:31:32;;;;;;;7.80;3.90;;;22.10;99.90;;;;;;5074552;28;20169;-78
2022/07/21 07:33:58;;;;;;;8.33;4.30;;;22.10;99.90;;;;;;5074331;28;20742;-77
2022/07/21 07:36:28;;;;;;;5.70;3.50;;;21.90;99.90;;;;;;5074346;28;20173;-78
2022/07/21 07:38:55;;;;;;;12.23;5.40;;;21.70;99.90;;;;;;5073528;28;20192;-77
2022/07/21 07:41:21;;;;;;;9.73;4.20;;;21.90;99.90;;;;;;5068139;28;20510;-78
2022/07/21 07:43:47;;;;;;;13.13;5.10;;;22.50;99.90;;;;;;5072975;28;20470;-77
2022/07/21 07:46:14;;;;;;;8.60;4.50;;;23.40;99.90;;;;;;5070072;28;20410;-78
2022/07/21 07:48:41;;;;;;;7.73;4.00;;;24.70;99.90;;;;;;5074342;28;20406;-78
2022/07/21 07:51:07;;;;;;;10.40;3.87;;;25.80;99.60;;;;;;5073824;28;20177;-78
2022/07/21 07:53:34;;;;;;;8.43;3.97;;;26.70;98.90;;;;;;5076646;28;20216;-78
2022/07/21 07:56:02;;;;;;;4.82;3.28;;;27.30;95.40;;;;;;5085824;28;20201;-77
2022/07/21 07:58:27;;;;;;;8.20;3.85;;;27.90;94.50;;;;;;5081438;28;20203;-78
2022/07/21 08:00:53;;;;;;;6.72;4.22;;;28.30;92.70;;;;;;5079253;28;20181;-77
2022/07/21 08:03:20;;;;;;;10.65;4.25;;;28.80;93.10;;;;;;5079325;28;20200;-78
2022/07/21 08:05:46;;;;;;;6.32;3.80;;;29.90;89.30;;;;;;5080418;28;20200;-78
2022/07/21 08:08:12;;;;;;;8.15;4.07;;;29.60;90.80;;;;;;5098231;28;20169;-80
2022/07/21 08:10:38;;;;;;;5.65;3.53;;;28.80;90.60;;;;;;5099809;28;20172;-79
2022/07/21 08:13:04;;;;;;;7.18;3.70;;;28.30;88.10;;;;;;5098924;28;20160;-78
2022/07/21 08:15:30;;;;;;;7.03;4.03;;;27.50;90.20;;;;;;5100527;28;20192;-79
2022/07/21 08:17:55;;;;;;;11.75;3.55;;;26.40;92.50;;;;;;5100760;28;20188;-78
2022/07/21 08:20:21;;;;;;;7.18;3.90;;;25.50;93.90;;;;;;5100291;28;20164;-78
2022/07/21 08:22:46;;;;;;;9.70;3.87;;;24.80;93.60;;;;;;5095698;28;20570;-77
2022/07/21 08:25:12;;;;;;;10.50;4.17;;;24.20;95.40;;;;;;5073554;28;20189;-78
2022/07/21 08:27:39;;;;;;;10.10;3.73;;;23.90;96.40;;;;;;5074497;28;20236;-77
2022/07/21 08:30:05;;;;;;;24.43;3.90;;;24.30;97.00;;;;;;5075801;28;20177;-77
2022/07/21 08:32:31;;;;;;;5.70;3.83;;;25.30;96.40;;;;;;5073793;28;20684;-78
2022/07/21 08:34:56;;;;;;;6.80;4.25;;;26.60;91.70;;;;;;5072153;28;20200;-78
2022/07/21 08:37:22;;;;;;;6.22;3.83;;;26.90;92.00;;;;;;5073491;28;20240;-78
2022/07/21 08:39:48;;;;;;;5.32;3.17;;;27.30;91.30;;;;;;5072772;28;20191;-78
2022/07/21 08:42:14;;;;;;;6.88;3.35;;;28.00;91.00;;;;;;5073426;28;20279;-78
2022/07/21 08:44:40;;;;;;;6.97;3.83;;;28.70;86.90;;;;;;5072579;28;20212;-78
2022/07/21 08:47:06;;;;;;;5.55;3.08;;;28.70;88.00;;;;;;5074603;28;20548;-79
2022/07/21 08:49:34;;;;;;;8.40;4.20;;;29.40;83.20;;;;;;5074519;28;20693;-79
2022/07/21 08:52:01;;;;;;;8.10;4.10;;;29.70;85.70;;;;;;5072762;28;20268;-78
2022/07/21 08:54:26;;;;;;;6.55;3.95;;;29.20;85.50;;;;;;5073467;28;20197;-78
2022/07/21 08:56:52;;;;;;;5.75;3.63;;;28.80;85.30;;;;;;5090909;28;20549;-79
2022/07/21 08:59:18;;;;;;;8.35;3.47;;;29.00;83.30;;;;;;5093193;28;20199;-78
2022/07/21 09:01:43;;;;;;;5.07;2.95;;;29.20;82.80;;;;;;5093067;28;20176;-78
2022/07/21 09:04:31;;;;;;;11.65;3.72;;;29.00;82.70;;;;;;5078159;28;20245;-78
2022/07/21 09:07:06;;;;;;;6.00;2.90;;;28.90;80.70;;;;;;5071628;28;20603;-77
2022/07/21 09:09:33;;;;;;;7.65;2.95;;;28.70;81.80;;;;;;5052569;28;20267;-78
2022/07/21 09:12:00;;;;;;;5.60;2.97;;;28.80;85.60;;;;;;5052872;28;20165;-78
2022/07/21 09:14:30;;;;;;;5.18;3.40;;;28.50;82.70;;;;;;5057194;28;20201;-78
2022/07/21 09:16:58;;;;;;;5.97;3.78;;;28.80;82.00;;;;;;5062491;28;20173;-78
2022/07/21 09:19:28;;;;;;;3.75;2.95;;;28.60;81.60;;;;;;5065088;28;20656;-77
2022/07/21 09:21:56;;;;;;;6.57;4.15;;;28.40;83.30;;;;;;5065288;28;20181;-78
2022/07/21 09:24:31;;;;;;;6.25;3.30;;;28.20;85.20;;;;;;5063649;28;20598;-78
2022/07/21 09:27:09;;;;;;;6.45;3.85;;;27.90;83.10;;;;;;5063902;28;20179;-78
2022/07/21 09:29:52;;;;;;;7.75;3.75;;;27.00;87.70;;;;;;5071539;28;20540;-78
2022/07/21 09:32:29;;;;;;;10.80;3.95;;;26.50;86.90;;;;;;5072348;28;20184;-77
2022/07/21 09:34:59;;;;;;;5.93;3.50;;;25.80;86.00;;;;;;5072066;28;20192;-78
2022/07/21 09:37:26;;;;;;;5.90;3.50;;;25.60;90.40;;;;;;5074701;28;20192;-78
2022/07/21 09:40:00;;;;;;;4.90;3.33;;;26.20;88.60;;;;;;5069672;28;20650;-78
2022/07/21 09:42:29;;;;;;;7.50;4.25;;;26.20;88.20;;;;;;5075435;28;20658;-78
2022/07/21 09:44:56;;;;;;;7.68;3.20;;;26.50;90.30;;;;;;5083959;28;20657;-80
2022/07/21 09:47:26;;;;;;;5.90;3.03;;;27.30;87.20;;;;;;5097718;28;20196;-79
2022/07/21 09:49:53;;;;;;;4.65;2.70;;;27.50;81.20;;;;;;5098349;28;20169;-77
2022/07/21 09:52:33;;;;;;;6.15;3.28;;;28.00;80.90;;;;;;5097433;28;20260;-78
2022/07/21 09:55:11;;;;;;;5.95;3.75;;;27.70;84.50;;;;;;5086378;28;20219;-77
2022/07/21 09:57:37;;;;;;;5.22;3.35;;;27.90;85.60;;;;;;5052937;28;20638;-78
2022/07/21 10:00:07;;;;;;;6.72;3.88;;;28.10;82.70;;;;;;5052367;28;20193;-78
2022/07/21 10:02:34;;;;;;;5.90;2.92;;;28.40;82.10;;;;;;5051348;28;20215;-78
2022/07/21 10:05:06;;;;;;;7.47;3.40;;;28.30;77.90;;;;;;5050539;28;20665;-78
2022/07/21 10:07:35;;;;;;;6.35;3.65;;;28.40;80.80;;;;;;5051887;28;20179;-78
2022/07/21 10:10:01;;;;;;;5.75;3.25;;;28.50;80.60;;;;;;5049641;28;20181;-78
2022/07/21 10:12:27;;;;;;;6.32;3.42;;;28.10;79.00;;;;;;5050887;28;20177;-79
2022/07/21 10:14:54;;;;;;;7.38;2.78;;;28.20;81.70;;;;;;5051624;28;20227;-79
2022/07/21 10:17:22;;;;;;;4.60;2.55;;;28.10;80.80;;;;;;5060744;28;20180;-79
2022/07/21 10:19:47;;;;;;;4.10;1.88;;;28.40;76.90;;;;;;5071638;28;20173;-78
2022/07/21 10:22:16;;;;;;;7.22;3.20;;;28.20;76.10;;;;;;5070959;28;20206;-77
2022/07/21 10:24:43;;;;;;;4.55;2.45;;;27.50;78.70;;;;;;5070902;28;20199;-78
2022/07/21 10:27:13;;;;;;;3.80;2.00;;;27.20;75.00;;;;;;5070319;28;20181;-78
2022/07/21 10:29:48;;;;;;;5.83;3.30;;;26.50;81.50;;;;;;5071083;28;20176;-78
2022/07/21 10:32:38;;;;;;;9.37;2.67;;;26.00;81.90;;;;;;5069780;28;20183;-78
2022/07/21 10:35:26;;;;;;;4.00;2.40;;;25.80;83.50;;;;;;5070396;28;20987;-78
2022/07/21 10:37:52;;;;;;;5.87;2.63;;;26.10;84.50;;;;;;5070627;28;20175;-78
2022/07/21 10:40:18;;;;;;;4.87;2.53;;;26.20;83.80;;;;;;5070453;28;20252;-77
2022/07/21 10:42:44;;;;;;;3.37;2.10;;;26.10;84.80;;;;;;5070592;28;20537;-78
2022/07/21 10:45:42;;;;;;;4.93;2.90;;;26.30;83.90;;;;;;5070208;28;20557;-78
2022/07/21 10:48:37;;;;;;;4.57;2.50;;;26.50;82.20;;;;;;5058339;28;20783;-76
2022/07/21 10:51:06;;;;;;;5.10;3.20;;;26.70;81.90;;;;;;5070352;28;20425;-78
2022/07/21 10:53:32;;;;;;;4.40;2.57;;;26.60;81.10;;;;;;5083875;28;20415;-78
2022/07/21 10:55:57;;;;;;;4.60;2.33;;;26.60;84.60;;;;;;5082331;28;20448;-78
2022/07/21 10:58:23;;;;;;;5.53;3.07;;;26.90;79.40;;;;;;5091319;28;20442;-79
2022/07/21 11:00:53;;;;;;;4.63;2.80;;;26.80;80.30;;;;;;5087545;28;20177;-79
2022/07/21 11:03:26;;;;;;;4.40;2.83;;;26.90;80.50;;;;;;5081709;28;20244;-78
2022/07/21 11:06:19;;;;;;;5.60;2.60;;;26.70;80.80;;;;;;5077651;28;20389;-77
2022/07/21 11:09:02;;;;;;;7.30;2.37;;;26.20;83.10;;;;;;5081868;28;20422;-79
2022/07/21 11:11:29;;;;;;;3.60;2.60;;;26.30;82.00;;;;;;5113327;22;20485;-79
2022/07/21 11:14:20;;;;;;;5.50;2.73;;;26.40;80.50;;;;;;5100734;28;20429;-79
2022/07/21 11:16:55;;;;;;;4.50;2.33;;;26.30;78.80;;;;;;5104156;28;20424;-77
2022/07/21 11:19:35;;;;;;;5.00;2.80;;;25.90;80.40;;;;;;5105421;28;20413;-77
2022/07/21 11:22:17;;;;;;;9.43;2.80;;;25.90;82.00;;;;;;5104375;28;20421;-78
2022/07/21 11:24:48;;;;;;;4.53;2.50;;;26.20;82.60;;;;;;5100666;28;20771;-78
2022/07/21 11:27:20;;;;;;;4.43;2.43;;;26.50;80.20;;;;;;5088681;28;20807;-77
2022/07/21 11:29:48;;;;;;;5.00;2.60;;;27.00;81.30;;;;;;5097336;28;20398;-78
2022/07/21 11:32:16;;;;;;;3.90;2.50;;;27.30;76.70;;;;;;5096264;28;20406;-78
2022/07/21 11:34:47;;;;;;;6.83;1.73;;;27.70;74.10;;;;;;5098043;28;20509;-78
2022/07/21 11:37:16;;;;;;;7.40;1.77;;;27.70;73.10;;;;;;5105329;28;20200;-77
2022/07/21 11:39:42;;;;;;;4.20;1.93;;;27.70;72.80;;;;;;5098333;28;20180;-78
2022/07/21 11:42:15;;;;;;;2.80;1.70;;;27.80;70.90;;;;;;5098183;28;20210;-77
2022/07/21 11:44:42;;;;;;;5.33;2.20;;;27.70;71.20;;;;;;5097145;28;20622;-77
2022/07/21 11:47:11;;;;;;;5.40;2.63;;;27.40;69.70;;;;;;5090813;28;20188;-77
2022/07/21 11:49:37;;;;;;;4.10;2.10;;;27.50;71.00;;;;;;5079921;28;20168;-77
2022/07/21 11:52:09;;;;;;;11.33;2.80;;;27.70;72.30;;;;;;5095825;28;20187;-77
2022/07/21 11:54:48;;;;;;;4.20;2.37;;;27.70;71.00;;;;;;5095674;28;20210;-77
2022/07/21 11:57:15;;;;;;;4.90;2.47;;;27.80;69.80;;;;;;5097469;28;20195;-77
2022/07/21 11:59:41;;;;;;;5.33;2.20;;;27.60;70.60;;;;;;5077820;28;20200;-78
2022/07/21 12:02:12;;;;;;;3.10;2.03;;;27.40;71.60;;;;;;5086143;28;20458;-77
2022/07/21 12:04:45;;;;;;;3.87;2.20;;;27.10;74.20;;;;;;5095526;28;20190;-78
2022/07/21 12:07:22;;;;;;;5.07;2.50;;;27.10;71.80;;;;;;5096457;28;20584;-77
2022/07/21 12:09:51;;;;;;;11.90;2.37;;;27.00;73.50;;;;;;5095739;28;20845;-77
2022/07/21 12:12:34;;;;;;;4.07;2.87;;;27.40;69.70;;;;;;5095139;28;20924;-77
2022/07/21 12:15:30;;;;;;;7.13;2.40;;;27.20;74.00;;;;;;5094666;28;20848;-76
2022/07/21 12:18:01;;;;;;;4.30;2.00;;;27.30;70.30;;;;;;5096880;28;20488;-76
2022/07/21 12:20:27;;;;;;;4.00;1.80;;;27.50;71.40;;;;;;5104958;28;20168;-77
2022/07/21 12:22:54;;;;;;;5.50;2.43;;;27.60;72.60;;;;;;5118322;28;20211;-76
2022/07/21 12:25:32;;;;;;;4.50;2.20;;;27.60;69.90;;;;;;5113116;28;20191;-77
2022/07/21 12:27:59;;;;;;;3.53;2.40;;;27.40;70.00;;;;;;5108490;28;20444;-78
2022/07/21 12:30:45;;;;;;;4.60;2.53;;;27.20;68.90;;;;;;5098804;28;20179;-77
2022/07/21 12:33:23;;;;;;;3.63;1.90;;;27.30;69.50;;;;;;5096616;28;20213;-77
2022/07/21 12:36:04;;;;;;;3.40;1.83;;;27.40;69.20;;;;;;5095745;28;20183;-78
2022/07/21 12:38:40;;;;;;;3.70;2.00;;;27.70;68.60;;;;;;5096199;28;20168;-78
2022/07/21 12:41:07;;;;;;;5.47;2.27;;;27.70;68.10;;;;;;5090462;28;20152;-77
2022/07/21 12:43:34;;;;;;;5.03;1.60;;;27.80;66.70;;;;;;5084757;28;20245;-77
2022/07/21 12:46:08;;;;;;;4.83;2.60;;;27.90;70.90;;;;;;5097519;28;20164;-78
2022/07/21 12:48:37;;;;;;;7.90;2.47;;;28.00;68.00;;;;;;5095962;28;20175;-78